Terminal Aerodrome Forecast
Issued by NWS

Home | Current Version | Previous Version | Graphics & Text | Print | Product List | Glossary On
Versions: 1 2 3 4 5 6 7 8 9 10 11 12 13 14 15
000
FTUS43 KBIS 221603 AAA
TAFDIK
TAF AMD
KDIK 221603Z 2216/2312 29015G25KT P6SM SKC
     FM222100 31020G29KT P6SM FEW110 FEW250
     FM230100 33013KT P6SM SKC
     FM230300 01009KT P6SM SKC
     FM230900 11005KT P6SM SKC=

USA.gov is the U.S. government's official web portal to all federal, state and local government web resources and services.